Terminal Aerodrome Forecast
Issued by NWS

Home | Current Version | Previous Version | Text Only | Print | Product List | Glossary Off
Versions: 1 2 3 4 5 6 7 8 9 10 11 12 13 14 15 16 17 18 19 20

000
FTUS43 KGRB 291100
TAFATW
TAF
KATW 291138Z 2912/3012 33006KT 5SM -SN BR SCT008 OVC015
      TEMPO 2912/2915 2SM -FZDZPL SCT004 OVC008
     FM291500 32008G15KT 5SM -SN BR FEW005 OVC010
     FM291700 32016G26KT P6SM -SN BKN025 BKN040
     FM300000 32015G24KT P6SM SCT025 BKN050
     FM300600 32012G18KT P6SM SCT100=

USA.gov is the U.S. government's official web portal to all federal, state and local government web resources and services.